메인 페이지
METAR-TAF:

METAR-TAF

공항 :

보팔, 인도

위도: 23-17-15N, 경도: 77-20-15E, 고도: 524m

현재 날씨관측

예보는 38분 전, 01:00시(UTC)에 발표되었습니다.
4kt
온도 12°C
습도 94%
기압 1015 hPa
시정: 2000m
박무

METAR: VABP 200100Z 35004KT 2000 BR NSC 12/11 Q1015 NOSIG

시각: 07:08 (01:38 UTC)

예보

예보는 2 시간 38분 전, 23:00시(UTC)에 발표되었습니다.
예보 대상 시간: 20일 00시부터 21일 06시까지 (UTC)
북북동5kt
시정: 1000m
낮은 안개
전환 중
20일 04시부터 20일 06시까지 (UTC)
시정: 3000m
연무
전환 중
20일 09시부터 20일 11시까지 (UTC)
북북서8kt
시정: 4000m
연무
전환 중
20일 15시부터 20일 17시까지 (UTC)
시정: 3000m
연무
전환 중
21일 01시부터 21일 03시까지 (UTC)
5kt
시정: 1000m
낮은 안개
전환 중
21일 04시부터 21일 06시까지 (UTC)
시정: 3000m
연무

TAF: VABP 192300Z 2000/2106 02005KT 1000 MIFG NSC BECMG 2004/2006 3000 HZ NSC BECMG 2009/2011 34008KT 4000 HZ BECMG 2015/2017 3000 HZ BECMG 2101/2103 36005KT 1000 MIFG BECMG 2104/2106 3000 HZ

4,000개 이상의 공항 관측 자료 및 예보 (METAR 및 TAF 보고).

지도상에서 검색 가능한 기상관측소가 노란 점과 빨간 점으로 표시되어 있습니다.

기상관측소 명을 보려면 표시 위로 마우스를 이동하세요.

날씨 관측과 예보를 보려면 클릭하세요.

지도 변경 : 확대하려면 엑스 표시가 있는 녹색 버튼, 축소하려면 빼기 표시가 있는 녹색 버튼, 다음 페이지의 지도를 보려면 녹색 화살표를 클릭하세요.


METAR-TAF: